Time;durP1;ratioP1;P1;durP2;ratioP2;P2;SDS_P1;SDS_P2;PMS_P1;PMS_P2;Temp;Humidity;BMP_temperature;BMP_pressure;BME280_temperature;BME280_humidity;BME280_pressure;Samples;Min_cycle;Max_cycle;Signal;HPM_P1;HPM_P2
2022/11/26 00:01:36;;;;;;;;;;;;;;;18.11;66.65;101480.23;2241079;79;50668;-79
2022/11/26 00:04:37;;;;;;;;;;;;;;;18.16;66.52;101473.89;2240901;78;50080;-79
2022/11/26 00:07:39;;;;;;;;;;;;;;;18.17;66.46;101483.12;2241032;79;50776;-80
2022/11/26 00:10:41;;;;;;;;;;;;;;;18.18;66.39;101488.80;2218640;79;49276;-79
2022/11/26 00:13:42;;;;;;;;;;;;;;;18.16;66.62;101483.27;2240944;79;50414;-79
2022/11/26 00:16:44;;;;;;;;;;;;;;;18.14;66.64;101484.78;2218557;79;50660;-78
2022/11/26 00:19:45;;;;;;;;;;;;;;;18.13;66.73;101488.95;2241200;78;51451;-78
2022/11/26 00:22:51;;;;;;;;;;;;;;;18.11;66.71;101494.48;2218943;79;49257;-78
2022/11/26 00:25:54;;;;;;;;;;;;;;;18.09;66.78;101495.64;2240935;79;51506;-78
2022/11/26 00:28:56;;;;;;;;;;;;;;;18.10;66.83;101501.33;2241080;79;52445;-78
2022/11/26 00:31:58;;;;;;;;;;;;;;;18.06;67.03;101499.48;2241050;79;50686;-78
2022/11/26 00:35:00;;;;;;;;;;;;;;;18.06;66.96;101499.48;2202850;79;53129;-79
2022/11/26 00:38:01;;;;;;;;;;;;;;;18.10;66.92;101504.00;2178827;81;51532;-78
2022/11/26 00:41:03;;;;;;;;;;;;;;;18.12;66.85;101498.00;2200261;80;51657;-77
2022/11/26 00:44:06;;;;;;;;;;;;;;;18.14;66.77;101513.41;2200228;81;50432;-77
2022/11/26 00:47:08;;;;;;;;;;;;;;;18.12;66.76;101516.23;2229262;77;51226;-77
2022/11/26 00:50:14;;;;;;;;;;;;;;;18.11;66.77;101515.91;2243105;79;50782;-77
2022/11/26 00:53:17;;;;;;;;;;;;;;;18.14;66.59;101513.41;2218429;79;51601;-77
2022/11/26 00:56:19;;;;;;;;;;;;;;;18.13;66.71;101517.07;2225316;79;50871;-80
2022/11/26 00:59:21;;;;;;;;;;;;;;;18.11;66.78;101523.08;2207261;80;50004;-78
2022/11/26 01:02:23;;;;;;;;;;;;;;;18.10;66.85;101526.77;2206302;80;50790;-77
2022/11/26 01:05:25;;;;;;;;;;;;;;;18.08;66.97;101534.11;2217169;80;51657;-77
2022/11/26 01:08:30;;;;;;;;;;;;;;;18.04;67.06;101534.44;2217274;80;50826;-78
2022/11/26 01:11:32;;;;;;;;;;;;;;;18.05;67.13;101537.95;2217421;79;49698;-77
2022/11/26 01:14:34;;;;;;;;;;;;;;;18.07;67.00;101542.66;2222469;77;50034;-77
2022/11/26 01:17:35;;;;;;;;;;;;;;;18.13;66.95;101543.34;2234878;79;50565;-78
2022/11/26 01:20:37;;;;;;;;;;;;;;;18.17;66.79;101554.61;2228624;79;50302;-78
2022/11/26 01:23:38;;;;;;;;;;;;;;;18.18;66.70;101549.58;2218175;79;49347;-77
2022/11/26 01:26:40;;;;;;;;;;;;;;;18.17;66.64;101557.28;2218377;79;50781;-78
2022/11/26 01:29:42;;;;;;;;;;;;;;;18.16;66.72;101563.62;2236373;77;50486;-78
2022/11/26 01:32:44;;;;;;;;;;;;;;;18.14;66.83;101564.30;2240940;79;50514;-77
2022/11/26 01:35:45;;;;;;;;;;;;;;;18.15;66.94;101561.95;2192943;79;52763;-77
2022/11/26 01:38:47;;;;;;;;;;;;;;;18.12;66.86;101572.48;2240999;79;51493;-79
2022/11/26 01:41:59;;;;;;;;;;;;;;;18.10;66.91;101570.96;2218207;79;51886;-77
2022/11/26 01:45:01;;;;;;;;;;;;;;;18.06;67.03;101569.94;2240450;79;51553;-77
2022/11/26 01:48:04;;;;;;;;;;;;;;;18.06;67.05;101567.27;2217606;79;49582;-76
2022/11/26 01:51:07;;;;;;;;;;;;;;;18.03;67.16;101574.28;2239780;79;50526;-76
2022/11/26 01:54:09;;;;;;;;;;;;;;;18.11;66.94;101578.85;2239500;79;50464;-77
2022/11/26 01:57:15;;;;;;;;;;;;;;;18.13;66.70;101585.38;2240711;79;51558;-77
2022/11/26 02:00:17;;;;;;;;;;;;;;;18.16;66.54;101582.37;2225083;78;51287;-78
2022/11/26 02:03:18;;;;;;;;;;;;;;;18.14;66.47;101581.71;2240626;78;50689;-77
2022/11/26 02:06:20;;;;;;;;;;;;;;;18.11;66.52;101592.24;2240879;79;50263;-76
2022/11/26 02:09:22;;;;;;;;;;;;;;;18.12;66.56;101583.20;2240841;79;51422;-77
2022/11/26 02:12:24;;;;;;;;;;;;;;;18.14;66.62;101587.07;2217623;79;49690;-77
2022/11/26 02:15:26;;;;;;;;;;;;;;;18.11;66.72;101588.70;2240429;78;50742;-78
2022/11/26 02:18:27;;;;;;;;;;;;;;;18.08;66.82;101588.52;2240720;79;50011;-77
2022/11/26 02:21:29;;;;;;;;;;;;;;;18.06;67.06;101594.05;2240703;79;50288;-77
2022/11/26 02:24:38;;;;;;;;;;;;;;;18.03;67.15;101602.40;2203615;80;50137;-75
2022/11/26 02:27:45;;;;;;;;;;;;;;;18.02;67.14;101597.19;2198869;79;50908;-77
2022/11/26 02:30:50;;;;;;;;;;;;;;;18.09;67.01;101612.14;2238426;78;50474;-77
2022/11/26 02:33:56;;;;;;;;;;;;;;;18.14;66.84;101613.86;2202402;81;51587;-77
2022/11/26 02:37:02;;;;;;;;;;;;;;;18.13;66.79;101614.83;2179553;81;52819;-77
2022/11/26 02:40:04;;;;;;;;;;;;;;;18.13;66.76;101619.69;2200046;80;51436;-77
2022/11/26 02:43:06;;;;;;;;;;;;;;;18.12;66.79;101627.39;2202524;81;50400;-76
2022/11/26 02:46:09;;;;;;;;;;;;;;;18.12;66.81;101631.91;2202336;81;50526;-76
2022/11/26 02:49:12;;;;;;;;;;;;;;;18.13;66.75;101628.22;2181349;80;51283;-76
2022/11/26 02:52:13;;;;;;;;;;;;;;;18.10;66.77;101626.70;2199896;81;51600;-75
2022/11/26 02:55:15;;;;;;;;;;;;;;;18.06;66.92;101623.50;2199634;81;50412;-77
2022/11/26 02:58:17;;;;;;;;;;;;;;;18.02;67.25;101618.61;2212669;79;50432;-77
2022/11/26 03:01:20;;;;;;;;;;;;;;;18.02;67.30;101623.46;2215419;79;51253;-77
2022/11/26 03:04:22;;;;;;;;;;;;;;;18.06;67.20;101624.84;2240550;79;50818;-76
2022/11/26 03:07:24;;;;;;;;;;;;;;;18.10;67.11;101629.38;2240910;78;51564;-76
2022/11/26 03:10:29;;;;;;;;;;;;;;;18.14;66.89;101630.77;2218718;79;50429;-76
2022/11/26 03:13:31;;;;;;;;;;;;;;;18.14;66.83;101629.42;2217898;79;51388;-76
2022/11/26 03:16:32;;;;;;;;;;;;;;;18.14;66.80;101628.08;2240617;79;50424;-76
2022/11/26 03:19:34;;;;;;;;;;;;;;;18.14;66.77;101628.08;2218376;79;50340;-78
2022/11/26 03:22:35;;;;;;;;;;;;;;;18.12;66.80;101623.87;2240765;78;50696;-77
2022/11/26 03:25:37;;;;;;;;;;;;;;;18.11;66.84;101631.08;2193459;79;50852;-77
2022/11/26 03:28:38;;;;;;;;;;;;;;;18.13;66.84;101645.64;2246483;78;50685;-77
2022/11/26 03:31:40;;;;;;;;;;;;;;;18.09;66.89;101650.98;2242918;78;50760;-77
2022/11/26 03:34:42;;;;;;;;;;;;;;;18.09;67.06;101657.17;2240629;79;51560;-77
2022/11/26 03:37:43;;;;;;;;;;;;;;;18.04;67.22;101660.31;2218179;79;50206;-77
2022/11/26 03:40:45;;;;;;;;;;;;;;;18.04;67.13;101658.97;2240820;79;50561;-76
2022/11/26 03:43:47;;;;;;;;;;;;;;;18.10;67.03;101660.69;2218246;79;50683;-78
2022/11/26 03:46:49;;;;;;;;;;;;;;;18.14;66.92;101664.75;2218589;79;52391;-78
2022/11/26 03:49:51;;;;;;;;;;;;;;;18.14;66.86;101667.42;2218791;79;49549;-78
2022/11/26 03:52:52;;;;;;;;;;;;;;;18.14;66.84;101666.09;2241242;78;50471;-78
2022/11/26 03:55:54;;;;;;;;;;;;;;;18.13;66.83;101675.94;2218545;79;50373;-78
2022/11/26 03:58:55;;;;;;;;;;;;;;;18.12;66.86;101671.59;2226728;78;50792;-78
2022/11/26 04:01:57;;;;;;;;;;;;;;;18.10;66.93;101675.42;2205339;79;50999;-78
2022/11/26 04:04:59;;;;;;;;;;;;;;;18.09;66.93;101675.92;2240909;78;50830;-78
2022/11/26 04:08:00;;;;;;;;;;;;;;;18.07;67.06;101676.56;2241279;79;51509;-79
2022/11/26 04:11:02;;;;;;;;;;;;;;;18.08;66.99;101686.77;2241223;79;51499;-78
2022/11/26 04:14:03;;;;;;;;;;;;;;;18.05;67.19;101683.41;2218720;79;51695;-78
2022/11/26 04:17:05;;;;;;;;;;;;;;;18.02;67.27;101697.11;2218682;79;51554;-79
2022/11/26 04:20:07;;;;;;;;;;;;;;;18.09;67.20;101701.87;2218761;79;50091;-77
2022/11/26 04:23:09;;;;;;;;;;;;;;;18.12;67.08;101696.20;2240909;79;50861;-77
2022/11/26 04:26:10;;;;;;;;;;;;;;;18.13;67.04;101702.72;2218427;79;50987;-77
2022/11/26 04:29:12;;;;;;;;;;;;;;;18.12;66.95;101707.75;2241171;79;51540;-78
2022/11/26 04:32:14;;;;;;;;;;;;;;;18.12;66.93;101710.92;2218279;79;50427;-77
2022/11/26 04:35:15;;;;;;;;;;;;;;;18.10;67.00;101716.93;2218373;79;52250;-79
2022/11/26 04:38:17;;;;;;;;;;;;;;;18.10;67.04;101720.95;2218542;79;50647;-79
2022/11/26 04:41:18;;;;;;;;;;;;;;;18.08;67.12;101719.75;2218668;79;50817;-78
2022/11/26 04:44:20;;;;;;;;;;;;;;;18.06;67.12;101726.62;2241046;79;51325;-78
2022/11/26 04:47:21;;;;;;;;;;;;;;;18.05;67.11;101731.61;2240885;79;51612;-78
2022/11/26 04:50:23;;;;;;;;;;;;;;;18.05;67.24;101731.61;2218281;79;52616;-78
2022/11/26 04:53:25;;;;;;;;;;;;;;;18.05;67.26;101738.30;2218044;79;51017;-77
2022/11/26 04:56:26;;;;;;;;;;;;;;;18.08;67.21;101743.86;2240863;79;51526;-77
2022/11/26 04:59:28;;;;;;;;;;;;;;;18.14;67.08;101745.94;2240838;79;51625;-77
2022/11/26 05:02:29;;;;;;;;;;;;;;;18.14;66.98;101752.64;2218101;78;49637;-77
2022/11/26 05:05:31;;;;;;;;;;;;;;;18.14;67.01;101755.31;2240968;79;49957;-77
2022/11/26 05:08:32;;;;;;;;;;;;;;;18.16;66.87;101760.50;2218296;79;50360;-77
2022/11/26 05:11:34;;;;;;;;;;;;;;;18.15;66.75;101761.51;2240781;79;50647;-77
2022/11/26 05:14:36;;;;;;;;;;;;;;;18.13;66.70;101767.00;2193022;77;50540;-76
2022/11/26 05:17:37;;;;;;;;;;;;;;;18.13;66.60;101768.34;2195496;78;50800;-77
2022/11/26 05:20:39;;;;;;;;;;;;;;;18.09;66.81;101777.70;2265823;78;51593;-77
2022/11/26 05:23:40;;;;;;;;;;;;;;;18.03;66.83;101781.83;2233859;78;51598;-77
2022/11/26 05:26:42;;;;;;;;;;;;;;;17.99;67.06;101783.11;2209856;78;49528;-77
2022/11/26 05:29:43;;;;;;;;;;;;;;;18.01;66.98;101785.66;2265841;78;50293;-77
2022/11/26 05:32:45;;;;;;;;;;;;;;;18.04;66.83;101794.72;2232910;78;50678;-76
2022/11/26 05:35:47;;;;;;;;;;;;;;;18.10;66.71;101793.27;2218094;79;50750;-77
2022/11/26 05:38:48;;;;;;;;;;;;;;;18.12;66.54;101798.81;2218332;79;51007;-77
2022/11/26 05:41:50;;;;;;;;;;;;;;;18.13;66.48;101803.67;2240946;79;51603;-76
2022/11/26 05:44:51;;;;;;;;;;;;;;;18.14;66.48;101802.19;2238428;79;52599;-76
2022/11/26 05:47:53;;;;;;;;;;;;;;;18.11;66.44;101806.98;2228364;79;50523;-76
2022/11/26 05:50:58;;;;;;;;;;;;;;;18.12;66.39;101808.70;2202965;81;50499;-76
2022/11/26 05:53:59;;;;;;;;;;;;;;;18.08;66.53;101810.81;2202919;81;50775;-78
2022/11/26 05:57:01;;;;;;;;;;;;;;;18.06;66.58;101815.50;2202922;81;51537;-77
2022/11/26 06:00:03;;;;;;;;;;;;;;;18.05;66.66;101821.33;2211825;77;51529;-76
2022/11/26 06:03:05;;;;;;;;;;;;;;;18.03;66.80;101816.65;2218227;79;50131;-77
2022/11/26 06:06:06;;;;;;;;;;;;;;;18.07;66.71;101819.85;2240826;79;51575;-76
2022/11/26 06:09:08;;;;;;;;;;;;;;;18.09;66.50;101831.77;2240967;79;50788;-78
2022/11/26 06:12:10;;;;;;;;;;;;;;;18.14;66.39;101829.48;2241296;79;50679;-77
2022/11/26 06:15:11;;;;;;;;;;;;;;;18.12;66.34;101838.16;2193763;79;51022;-78
2022/11/26 06:18:13;;;;;;;;;;;;;;;18.15;66.14;101845.88;2241247;79;51561;-80
2022/11/26 06:21:14;;;;;;;;;;;;;;;18.13;66.09;101849.20;2241349;79;51620;-78
2022/11/26 06:24:16;;;;;;;;;;;;;;;18.12;66.07;101848.88;2241154;77;51599;-79
2022/11/26 06:27:17;;;;;;;;;;;;;;;18.05;66.21;101854.81;2205352;79;52561;-79
2022/11/26 06:30:20;;;;;;;;;;;;;;;18.04;66.37;101861.17;2240957;79;51556;-77
2022/11/26 06:33:21;;;;;;;;;;;;;;;18.02;66.31;101868.51;2218109;79;50069;-77
2022/11/26 06:36:23;;;;;;;;;;;;;;;17.97;66.43;101875.31;2240774;79;50709;-75
2022/11/26 06:39:25;;;;;;;;;;;;;;;17.93;66.55;101877.92;2218252;79;50789;-76
2022/11/26 06:42:26;;;;;;;;;;;;;;;17.92;66.56;101877.09;2218381;79;51616;-76
2022/11/26 06:45:28;;;;;;;;;;;;;;;17.96;66.05;101885.19;2240682;79;51586;-76
2022/11/26 06:48:29;;;;;;;;;;;;;;;18.04;65.56;101888.45;2218065;78;51452;-75
2022/11/26 06:51:31;;;;;;;;;;;;;;;18.08;65.43;101891.67;2240882;79;51547;-76
2022/11/26 06:54:33;;;;;;;;;;;;;;;18.08;65.35;101897.02;2218592;79;51523;-76
2022/11/26 06:57:34;;;;;;;;;;;;;;;18.09;65.33;101898.23;2228352;78;50642;-76
2022/11/26 07:00:36;;;;;;;;;;;;;;;18.09;65.31;101906.27;2240974;79;51513;-75
2022/11/26 07:03:37;;;;;;;;;;;;;;;18.10;65.09;101907.09;2218065;79;51030;-76
2022/11/26 07:06:39;;;;;;;;;;;;;;;18.08;65.14;101911.25;2255276;77;51629;-76
2022/11/26 07:09:40;;;;;;;;;;;;;;;18.04;65.22;101920.59;2243125;78;50276;-75
2022/11/26 07:12:42;;;;;;;;;;;;;;;18.03;65.41;101926.45;2240888;78;50425;-77
2022/11/26 07:15:43;;;;;;;;;;;;;;;18.05;65.34;101927.12;2190641;77;51755;-75
2022/11/26 07:18:50;;;;;;;;;;;;;;;17.99;65.49;101930.41;2222408;78;50831;-76
2022/11/26 07:21:51;;;;;;;;;;;;;;;18.03;65.03;101932.28;2265163;78;51540;-76
2022/11/26 07:24:53;;;;;;;;;;;;;;;18.07;64.74;101933.69;2256682;78;50440;-77
2022/11/26 07:27:54;;;;;;;;;;;;;;;18.10;64.61;101931.20;2205195;79;51410;-76
2022/11/26 07:31:01;;;;;;;;;;;;;;;18.10;64.58;101938.74;2217943;79;51444;-75
2022/11/26 07:34:02;;;;;;;;;;;;;;;18.10;64.52;101936.06;2215778;79;49698;-77
2022/11/26 07:37:04;;;;;;;;;;;;;;;18.10;64.49;101931.20;2240779;79;50655;-76
2022/11/26 07:40:06;;;;;;;;;;;;;;;18.12;64.40;101942.63;2218130;79;51400;-74
2022/11/26 07:43:07;;;;;;;;;;;;;;;18.06;64.66;101940.88;2240708;79;50434;-75
2022/11/26 07:46:10;;;;;;;;;;;;;;;18.04;64.90;101948.72;2214171;79;50491;-75
2022/11/26 07:49:11;;;;;;;;;;;;;;;17.99;65.10;101947.81;2205570;79;51528;-75
2022/11/26 07:52:13;;;;;;;;;;;;;;;17.97;65.30;101955.65;2218155;79;50820;-76
2022/11/26 07:55:14;;;;;;;;;;;;;;;17.98;64.97;101949.29;2193400;79;49678;-76
2022/11/26 07:58:16;;;;;;;;;;;;;;;18.08;64.59;101955.45;2218138;79;52348;-76
2022/11/26 08:01:18;;;;;;;;;;;;;;;18.08;64.44;101967.50;2240653;79;50717;-77
2022/11/26 08:04:20;;;;;;;;;;;;;;;18.10;64.31;101967.37;2194424;79;51209;-76
2022/11/26 08:07:22;;;;;;;;;;;;;;;18.09;64.39;101967.03;2218065;79;49608;-75
2022/11/26 08:10:23;;;;;;;;;;;;;;;18.11;64.33;101970.38;2212097;79;50133;-76
2022/11/26 08:13:25;;;;;;;;;;;;;;;18.08;64.58;101974.70;2217836;79;50770;-75
2022/11/26 08:16:26;;;;;;;;;;;;;;;18.02;64.80;101983.67;2221732;78;52664;-78
2022/11/26 08:19:28;;;;;;;;;;;;;;;17.97;65.05;101988.63;2259174;77;51573;-77
2022/11/26 08:22:29;;;;;;;;;;;;;;;17.93;65.23;101988.58;2256528;77;51495;-75
2022/11/26 08:25:31;;;;;;;;;;;;;;;17.93;65.59;101993.94;2253071;77;51547;-76
2022/11/26 08:28:33;;;;;;;;;;;;;;;17.94;65.44;101993.44;2187601;80;50104;-74
2022/11/26 08:31:34;;;;;;;;;;;;;;;17.97;65.08;102003.35;2212438;80;50493;-76
2022/11/26 08:34:36;;;;;;;;;;;;;;;18.05;64.85;102003.46;2223603;80;51542;-75
2022/11/26 08:37:38;;;;;;;;;;;;;;;18.12;64.71;102001.55;2212558;80;50499;-76
2022/11/26 08:40:39;;;;;;;;;;;;;;;18.19;64.61;102002.66;2217282;80;50379;-77
2022/11/26 08:43:41;;;;;;;;;;;;;;;18.19;64.63;102008.86;2203689;80;50524;-78
2022/11/26 08:46:42;;;;;;;;;;;;;;;18.19;64.85;102010.70;2233078;78;50745;-77
2022/11/26 08:49:47;;;;;;;;;;;;;;;18.21;65.01;102020.75;2242442;78;51548;-77
2022/11/26 08:52:47;;;;;;;;;;;;;;;18.12;63.40;102024.33;2228115;79;23293;-76
2022/11/26 08:55:49;;;;;;;;;;;;;;;17.99;62.99;102026.82;2217760;79;51554;-76
2022/11/26 08:58:50;;;;;;;;;;;;;;;17.98;62.27;102027.82;2240773;79;51495;-75
2022/11/26 09:01:52;;;;;;;;;;;;;;;17.93;62.61;102040.80;2240775;79;50382;-77
2022/11/26 09:04:54;;;;;;;;;;;;;;;17.86;63.10;102034.83;2193743;79;52757;-78
2022/11/26 09:07:55;;;;;;;;;;;;;;;18.26;62.40;102043.92;2219237;79;51571;-75
2022/11/26 09:10:57;;;;;;;;;;;;;;;18.34;62.67;102045.87;2240880;79;50405;-76
2022/11/26 09:13:59;;;;;;;;;;;;;;;18.36;62.91;102052.77;2240964;79;50473;-76
2022/11/26 09:17:00;;;;;;;;;;;;;;;18.39;62.82;102055.15;2219087;78;50933;-77
2022/11/26 09:20:02;;;;;;;;;;;;;;;18.40;62.76;102055.52;2234092;78;50770;-74
2022/11/26 09:23:04;;;;;;;;;;;;;;;18.39;62.76;102057.83;2234049;78;51553;-75
2022/11/26 09:26:06;;;;;;;;;;;;;;;18.35;63.24;102062.31;2265923;78;51537;-76
2022/11/26 09:29:07;;;;;;;;;;;;;;;18.31;63.51;102058.22;2208539;78;51614;-75
2022/11/26 09:32:09;;;;;;;;;;;;;;;18.31;63.73;102068.44;2233694;78;51580;-76
2022/11/26 09:35:10;;;;;;;;;;;;;;;18.20;64.12;102067.30;2265660;78;51532;-76
2022/11/26 09:38:12;;;;;;;;;;;;;;;18.27;63.98;102080.46;2233780;78;51585;-75
2022/11/26 09:41:18;;;;;;;;;;;;;;;18.27;63.98;102077.78;2233693;78;51546;-76
2022/11/26 09:44:33;;;;;;;;;;;;;;;18.24;63.99;102082.94;2265352;78;51657;-76
2022/11/26 09:47:39;;;;;;;;;;;;;;;18.16;64.56;102081.95;2245815;77;51676;-76
2022/11/26 09:50:40;;;;;;;;;;;;;;;18.11;64.80;102078.40;2239979;78;50772;-73
2022/11/26 09:53:43;;;;;;;;;;;;;;;18.12;65.18;102089.45;2233385;78;52433;-76
2022/11/26 09:56:45;;;;;;;;;;;;;;;18.12;65.39;102092.62;2265669;78;50377;-76
2022/11/26 09:59:47;;;;;;;;;;;;;;;18.23;65.36;102095.13;2265663;78;51554;-77
2022/11/26 10:02:50;;;;;;;;;;;;;;;18.21;65.57;102097.09;2265653;78;50298;-75
2022/11/26 10:05:56;;;;;;;;;;;;;;;18.21;65.49;102101.98;2232173;78;51502;-75
2022/11/26 10:08:59;;;;;;;;;;;;;;;18.14;65.41;102097.35;2265693;78;50095;-75
2022/11/26 10:12:03;;;;;;;;;;;;;;;18.09;66.00;102104.48;2265601;77;50432;-76
2022/11/26 10:15:23;;;;;;;;;;;;;;;18.10;66.13;102104.81;2265550;78;51516;-75
2022/11/26 10:18:35;;;;;;;;;;;;;;;18.09;66.77;102106.32;2233654;78;50064;-79
2022/11/26 10:21:38;;;;;;;;;;;;;;;18.11;66.56;102105.66;2216869;79;51669;-76
2022/11/26 10:24:40;;;;;;;;;;;;;;;18.10;66.27;102106.66;2240504;79;51634;-77
2022/11/26 10:27:42;;;;;;;;;;;;;;;18.03;66.87;102109.05;2240706;79;51585;-77
2022/11/26 10:30:43;;;;;;;;;;;;;;;18.00;67.01;102115.54;2240732;79;51472;-77
2022/11/26 10:33:49;;;;;;;;;;;;;;;17.96;66.78;102112.81;2217488;79;51211;-75
2022/11/26 10:36:51;;;;;;;;;;;;;;;17.93;66.76;102114.45;2239915;79;51592;-76
2022/11/26 10:39:57;;;;;;;;;;;;;;;17.91;66.88;102115.08;2240664;79;51589;-77
2022/11/26 10:43:00;;;;;;;;;;;;;;;17.88;67.36;102121.19;2217947;79;51486;-76
2022/11/26 10:46:01;;;;;;;;;;;;;;;17.91;68.49;102131.64;2216231;79;52552;-77
2022/11/26 10:49:22;;;;;;;;;;;;;;;17.93;68.57;102131.86;2240600;79;50812;-75
2022/11/26 10:52:27;;;;;;;;;;;;;;;17.99;68.91;102139.30;2240626;79;51659;-76
2022/11/26 10:55:29;;;;;;;;;;;;;;;18.00;69.39;102142.32;2217706;79;49461;-76
2022/11/26 10:58:31;;;;;;;;;;;;;;;18.04;69.43;102134.87;2217940;79;51083;-76
2022/11/26 11:01:35;;;;;;;;;;;;;;;18.04;70.22;102147.76;2240627;79;51573;-76
2022/11/26 11:04:39;;;;;;;;;;;;;;;18.04;70.22;102145.58;2217910;78;49690;-77
2022/11/26 11:07:42;;;;;;;;;;;;;;;18.05;70.44;102160.15;2240710;79;50123;-79
2022/11/26 11:10:54;;;;;;;;;;;;;;;18.06;70.46;102148.47;2217863;79;49686;-75
2022/11/26 11:13:56;;;;;;;;;;;;;;;18.06;70.29;102152.48;2217850;79;50703;-75
2022/11/26 11:16:57;;;;;;;;;;;;;;;18.06;70.19;102150.30;2240638;79;50673;-77
2022/11/26 11:20:00;;;;;;;;;;;;;;;18.06;70.26;102159.18;2240654;79;50365;-75
2022/11/26 11:23:03;;;;;;;;;;;;;;;18.05;70.39;102154.80;2217860;79;51065;-76
2022/11/26 11:26:06;;;;;;;;;;;;;;;18.06;70.16;102160.52;2240544;79;51654;-76
2022/11/26 11:29:09;;;;;;;;;;;;;;;18.05;69.84;102158.81;2240756;79;50415;-76
2022/11/26 11:32:18;;;;;;;;;;;;;;;18.03;69.63;102160.81;2240461;79;50362;-77
2022/11/26 11:35:21;;;;;;;;;;;;;;;18.01;69.64;102172.16;2212402;79;50191;-76
2022/11/26 11:38:23;;;;;;;;;;;;;;;18.00;69.49;102163.75;2240964;79;50819;-75
2022/11/26 11:41:29;;;;;;;;;;;;;;;17.99;69.35;102165.25;2240670;79;50585;-77
2022/11/26 11:44:33;;;;;;;;;;;;;;;17.97;69.39;102168.06;2240351;79;51589;-75
2022/11/26 11:47:39;;;;;;;;;;;;;;;17.96;69.28;102174.41;2216324;79;51054;-75
2022/11/26 11:50:41;;;;;;;;;;;;;;;17.94;69.14;102165.67;2240636;79;50562;-76
2022/11/26 11:53:45;;;;;;;;;;;;;;;17.97;69.08;102166.72;2217986;79;50465;-76
2022/11/26 11:56:55;;;;;;;;;;;;;;;18.00;69.05;102166.43;2240675;79;51597;-76
2022/11/26 12:00:12;;;;;;;;;;;;;;;17.99;68.89;102171.45;2217877;79;50182;-77
2022/11/26 12:03:21;;;;;;;;;;;;;;;17.98;69.03;102174.25;2238438;79;50754;-79
2022/11/26 12:06:24;;;;;;;;;;;;;;;17.95;68.87;102171.36;2240788;78;50749;-76
2022/11/26 12:09:27;;;;;;;;;;;;;;;17.93;68.80;102181.40;2238058;79;50841;-76
2022/11/26 12:12:30;;;;;;;;;;;;;;;17.91;68.72;102182.03;2200981;80;53100;-74
2022/11/26 12:15:33;;;;;;;;;;;;;;;17.89;68.53;102175.13;2216510;80;51655;-75
2022/11/26 12:18:43;;;;;;;;;;;;;;;17.91;68.42;102183.36;2217154;79;51659;-75
2022/11/26 12:21:46;;;;;;;;;;;;;;;17.94;68.43;102182.23;2216587;80;50541;-77
2022/11/26 12:24:49;;;;;;;;;;;;;;;17.95;68.35;102179.40;2200911;80;49590;-78
2022/11/26 12:27:52;;;;;;;;;;;;;;;17.94;68.28;102168.84;2217173;80;51645;-78
2022/11/26 12:31:02;;;;;;;;;;;;;;;17.93;68.20;102165.33;2216820;78;50619;-77
2022/11/26 12:34:05;;;;;;;;;;;;;;;17.91;68.12;102172.66;2217149;79;51598;-78
2022/11/26 12:37:08;;;;;;;;;;;;;;;17.89;68.02;102175.95;2211775;79;50162;-78
2022/11/26 12:40:17;;;;;;;;;;;;;;;17.92;67.91;102173.49;2237766;79;51764;-80
2022/11/26 12:43:27;;;;;;;;;;;;;;;17.89;67.92;102165.25;2241864;79;50873;-80
2022/11/26 12:46:36;;;;;;;;;;;;;;;17.85;67.81;102174.53;2242090;79;50368;-80
2022/11/26 12:49:48;;;;;;;;;;;;;;;17.83;67.88;102172.52;2218105;79;52605;-80
2022/11/26 12:52:51;;;;;;;;;;;;;;;17.82;67.74;102172.14;2241390;79;51585;-78
2022/11/26 12:56:00;;;;;;;;;;;;;;;17.84;67.69;102170.18;2242041;79;50484;-79
2022/11/26 12:59:19;;;;;;;;;;;;;;;17.89;67.54;102179.14;2242231;79;52032;-79
2022/11/26 13:02:25;;;;;;;;;;;;;;;17.93;67.34;102181.40;2218147;79;50123;-79
2022/11/26 13:05:28;;;;;;;;;;;;;;;17.87;67.47;102176.59;2242127;79;49938;-78
2022/11/26 13:08:48;;;;;;;;;;;;;;;17.82;67.67;102172.14;2241592;79;50872;-79
2022/11/26 13:11:57;;;;;;;;;;;;;;;17.80;67.67;102176.79;2241596;79;50400;-79
2022/11/26 13:15:03;;;;;;;;;;;;;;;17.79;67.77;102180.44;2217536;79;51171;-79
2022/11/26 13:18:06;;;;;;;;;;;;;;;17.78;67.66;102188.12;2234814;78;51619;-79
2022/11/26 13:21:26;;;;;;;;;;;;;;;17.79;67.78;102188.00;2217923;79;50843;-80
2022/11/26 13:24:48;;;;;;;;;;;;;;;17.77;67.72;102190.44;2217752;80;50758;-79
2022/11/26 13:28:00;;;;;;;;;;;;;;;17.77;67.67;102188.59;2135149;82;49916;-80
2022/11/26 13:31:04;;;;;;;;;;;;;;;17.78;67.62;102192.98;2158847;81;49935;-79
2022/11/26 13:34:08;;;;;;;;;;;;;;;17.79;67.82;102193.82;2158793;82;50718;-79
2022/11/26 13:37:20;;;;;;;;;;;;;;;17.94;67.35;102193.78;2158249;82;50737;-79
2022/11/26 13:40:38;;;;;;;;;;;;;;;17.97;67.17;102198.02;2135893;82;49842;-79
2022/11/26 13:43:59;;;;;;;;;;;;;;;18.01;67.00;102200.28;2158877;81;51146;-80
2022/11/26 13:47:04;;;;;;;;;;;;;;;17.99;67.10;102200.91;2158906;82;50807;-80
2022/11/26 13:50:08;;;;;;;;;;;;;;;17.91;67.35;102204.79;2158612;81;50499;-80
2022/11/26 13:53:18;;;;;;;;;;;;;;;17.87;67.47;102203.36;2159909;81;51297;-80
2022/11/26 13:56:21;;;;;;;;;;;;;;;17.85;67.49;102205.33;2141828;83;50406;-79
2022/11/26 13:59:23;;;;;;;;;;;;;;;17.83;67.56;102204.65;2204636;79;51501;-79
2022/11/26 14:02:35;;;;;;;;;;;;;;;17.82;67.54;102201.59;2241372;79;50381;-80
2022/11/26 14:05:50;;;;;;;;;;;;;;;17.81;67.72;102204.78;2218048;79;50203;-79
2022/11/26 14:08:52;;;;;;;;;;;;;;;17.94;67.13;102211.20;2242038;79;50839;-80
2022/11/26 14:11:55;;;;;;;;;;;;;;;17.95;67.08;102219.56;2241814;79;50623;-80
2022/11/26 14:14:57;;;;;;;;;;;;;;;17.89;67.25;102217.46;2241562;79;51710;-80
2022/11/26 14:17:58;;;;;;;;;;;;;;;17.86;67.35;102215.07;2194358;79;51343;-80
2022/11/26 14:21:02;;;;;;;;;;;;;;;17.80;67.46;102211.12;2219183;79;50434;-81
2022/11/26 14:24:04;;;;;;;;;;;;;;;17.77;67.51;102216.70;2241776;79;50720;-80
2022/11/26 14:27:06;;;;;;;;;;;;;;;17.75;67.52;102215.16;2219445;79;50780;-80
2022/11/26 14:30:09;;;;;;;;;;;;;;;17.74;67.54;102215.65;2218651;79;51519;-80
2022/11/26 14:33:17;;;;;;;;;;;;;;;17.74;67.55;102218.83;2241350;79;52659;-80
2022/11/26 14:36:23;;;;;;;;;;;;;;;17.75;67.55;102216.02;2241275;79;50840;-80
2022/11/26 14:39:25;;;;;;;;;;;;;;;17.82;67.25;102215.83;2241321;78;50952;-79
2022/11/26 14:42:26;;;;;;;;;;;;;;;17.97;66.72;102218.10;2218442;79;49553;-78
2022/11/26 14:45:28;;;;;;;;;;;;;;;18.01;66.53;102218.19;2231155;79;51554;-78
2022/11/26 14:48:30;;;;;;;;;;;;;;;18.06;66.36;102217.27;2233081;79;50296;-77
2022/11/26 14:51:32;;;;;;;;;;;;;;;18.06;66.84;102224.80;2234591;79;51570;-74
2022/11/26 14:54:37;;;;;;;;;;;;;;;18.09;66.77;102222.84;2250235;79;50913;-77
2022/11/26 14:57:40;;;;;;;;;;;;;;;18.05;66.76;102224.44;2252801;79;51682;-77
2022/11/26 15:00:42;;;;;;;;;;;;;;;18.00;67.18;102224.02;2241544;79;50956;-77
2022/11/26 15:03:45;;;;;;;;;;;;;;;18.00;67.31;102228.03;2218822;79;50262;-77
2022/11/26 15:06:47;;;;;;;;;;;;;;;18.03;67.20;102229.58;2216399;79;51382;-77
2022/11/26 15:09:51;;;;;;;;;;;;;;;18.03;67.06;102228.23;2241760;79;51579;-78
2022/11/26 15:12:52;;;;;;;;;;;;;;;17.94;67.22;102233.96;2240547;79;51534;-78
2022/11/26 15:15:55;;;;;;;;;;;;;;;17.90;67.33;102239.23;2235452;78;50677;-77
2022/11/26 15:18:56;;;;;;;;;;;;;;;17.89;67.25;102249.59;2210845;79;51082;-77
2022/11/26 15:21:58;;;;;;;;;;;;;;;17.94;67.26;102245.17;2233576;79;52466;-77
2022/11/26 15:24:59;;;;;;;;;;;;;;;17.85;67.37;102246.83;2233251;79;51497;-76
2022/11/26 15:28:06;;;;;;;;;;;;;;;17.86;67.16;102237.00;2233503;79;50824;-76
2022/11/26 15:31:09;;;;;;;;;;;;;;;17.80;67.21;102242.39;2232713;79;23176;-77
2022/11/26 15:34:10;;;;;;;;;;;;;;;17.78;67.18;102243.02;2209739;79;22300;-77
2022/11/26 15:37:12;;;;;;;;;;;;;;;17.76;67.21;102248.98;2233878;79;50638;-78
2022/11/26 15:40:23;;;;;;;;;;;;;;;17.75;67.14;102249.48;2233620;79;50377;-77